Kezdőlap
METAR-TAF:

METAR-TAF

Repülőterek :

S.t James Municipal Airport

St. James, Minnesota, Amerikai Egyesült Államok

földrajzi szélesség: 43-59-11N, földrajzi hosszúság: 094-33-29W, magasság: 325 m

Jelenlegi meteorológiai megfigyelések

A jelentés 14 perccel ezelõtt készült, 07:35 UTC
Északnyugati szél 6 kt
Hőmérséklet -6°C
Páratartalom 79%
Légköri nyomás 1020 hPa
Látótávolság: 16.1 km

METAR: KJYG 270735Z 31006KT 10SM M06/M09 A3013 RMK AO2 PWINO

Idő: 01:49 (07:49 UTC)


TAF: hiányzik

Meteorológiai megfigyelések és előrejelzések több, mint 4000 repülőtéren (METAR és TAF jelentéseket).

A térképen piros és sárga pontok jelzik az elérhető meteorológiai állomásokat.

Mozgassa az egeret a pont fölött, hogy megjelenjen az állomás neve.

Azután kattintson az időjárási megfigyelések és előrejelzések megtekintéséhez.

A térkép megváltoztatása: kattintson a fekete keresztel jelölt zöld gombra ráközelítéshez, a vonallal jelölt zöld gombra távolításhoz, vagy a zöld nyilakra a szomszédos térképek eléréséhez.


METAR-TAF: